sensor_id;sensor_type;location;lat;lon;timestamp;temperature;humidity
14471;DHT22;7321;50.802;4.336;2023-09-19T00:01:42;16.90;99.90
14471;DHT22;7321;50.802;4.336;2023-09-19T00:04:14;16.90;99.90
14471;DHT22;7321;50.802;4.336;2023-09-19T00:06:40;17.00;99.90
14471;DHT22;7321;50.802;4.336;2023-09-19T00:09:06;17.00;99.90
14471;DHT22;7321;50.802;4.336;2023-09-19T00:11:37;17.00;99.90
14471;DHT22;7321;50.802;4.336;2023-09-19T00:14:04;16.80;99.90
14471;DHT22;7321;50.802;4.336;2023-09-19T00:16:30;16.80;99.90
14471;DHT22;7321;50.802;4.336;2023-09-19T00:18:58;16.70;99.90
14471;DHT22;7321;50.802;4.336;2023-09-19T00:21:24;16.80;99.90
14471;DHT22;7321;50.802;4.336;2023-09-19T00:23:50;16.90;99.90
14471;DHT22;7321;50.802;4.336;2023-09-19T00:26:17;17.10;99.90
14471;DHT22;7321;50.802;4.336;2023-09-19T00:28:44;17.10;99.90
14471;DHT22;7321;50.802;4.336;2023-09-19T00:31:10;17.10;99.90
14471;DHT22;7321;50.802;4.336;2023-09-19T00:33:35;17.00;99.90
14471;DHT22;7321;50.802;4.336;2023-09-19T00:36:02;17.00;99.90
14471;DHT22;7321;50.802;4.336;2023-09-19T00:38:31;16.90;99.90
14471;DHT22;7321;50.802;4.336;2023-09-19T00:40:57;16.80;99.90
14471;DHT22;7321;50.802;4.336;2023-09-19T00:43:25;16.90;99.90
14471;DHT22;7321;50.802;4.336;2023-09-19T00:45:53;17.00;99.90
14471;DHT22;7321;50.802;4.336;2023-09-19T00:48:21;16.80;99.90
14471;DHT22;7321;50.802;4.336;2023-09-19T00:50:48;16.70;99.90
14471;DHT22;7321;50.802;4.336;2023-09-19T00:53:18;16.70;99.90
14471;DHT22;7321;50.802;4.336;2023-09-19T00:55:46;16.80;99.90
14471;DHT22;7321;50.802;4.336;2023-09-19T00:58:12;16.60;99.90
14471;DHT22;7321;50.802;4.336;2023-09-19T01:00:38;16.70;99.90
14471;DHT22;7321;50.802;4.336;2023-09-19T01:03:05;16.70;99.90
14471;DHT22;7321;50.802;4.336;2023-09-19T01:05:35;16.60;99.90
14471;DHT22;7321;50.802;4.336;2023-09-19T01:08:01;16.60;99.90
14471;DHT22;7321;50.802;4.336;2023-09-19T01:10:27;16.50;99.90
14471;DHT22;7321;50.802;4.336;2023-09-19T01:13:10;16.40;99.90
14471;DHT22;7321;50.802;4.336;2023-09-19T01:15:50;16.50;99.90
14471;DHT22;7321;50.802;4.336;2023-09-19T01:21:15;16.60;99.90
14471;DHT22;7321;50.802;4.336;2023-09-19T01:29:39;16.60;99.90
14471;DHT22;7321;50.802;4.336;2023-09-19T01:32:06;16.50;99.90
14471;DHT22;7321;50.802;4.336;2023-09-19T01:34:49;16.50;99.90
14471;DHT22;7321;50.802;4.336;2023-09-19T01:37:20;16.60;99.90
14471;DHT22;7321;50.802;4.336;2023-09-19T01:40:02;16.70;99.90
14471;DHT22;7321;50.802;4.336;2023-09-19T01:42:47;16.80;99.90
14471;DHT22;7321;50.802;4.336;2023-09-19T01:45:22;16.80;99.90
14471;DHT22;7321;50.802;4.336;2023-09-19T01:47:56;16.80;99.90
14471;DHT22;7321;50.802;4.336;2023-09-19T01:50:32;16.80;99.90
14471;DHT22;7321;50.802;4.336;2023-09-19T01:53:04;16.70;99.90
14471;DHT22;7321;50.802;4.336;2023-09-19T01:55:37;16.70;99.90
14471;DHT22;7321;50.802;4.336;2023-09-19T02:00:41;16.70;99.90
14471;DHT22;7321;50.802;4.336;2023-09-19T02:03:09;16.70;99.90
14471;DHT22;7321;50.802;4.336;2023-09-19T02:05:35;16.60;99.90
14471;DHT22;7321;50.802;4.336;2023-09-19T02:08:01;16.70;99.90
14471;DHT22;7321;50.802;4.336;2023-09-19T02:10:28;16.80;99.90
14471;DHT22;7321;50.802;4.336;2023-09-19T02:12:54;16.70;99.90
14471;DHT22;7321;50.802;4.336;2023-09-19T02:15:20;16.50;99.90
14471;DHT22;7321;50.802;4.336;2023-09-19T02:17:47;16.40;99.90
14471;DHT22;7321;50.802;4.336;2023-09-19T02:20:13;16.50;99.90
14471;DHT22;7321;50.802;4.336;2023-09-19T02:22:42;16.40;99.90
14471;DHT22;7321;50.802;4.336;2023-09-19T02:25:08;16.50;99.90
14471;DHT22;7321;50.802;4.336;2023-09-19T02:27:34;16.40;99.90
14471;DHT22;7321;50.802;4.336;2023-09-19T02:30:00;16.40;99.90
14471;DHT22;7321;50.802;4.336;2023-09-19T02:32:30;16.50;99.90
14471;DHT22;7321;50.802;4.336;2023-09-19T02:35:02;16.40;99.90
14471;DHT22;7321;50.802;4.336;2023-09-19T02:37:31;16.30;99.90
14471;DHT22;7321;50.802;4.336;2023-09-19T02:39:56;16.30;99.90
14471;DHT22;7321;50.802;4.336;2023-09-19T02:42:22;16.20;99.90
14471;DHT22;7321;50.802;4.336;2023-09-19T02:44:48;16.00;99.90
14471;DHT22;7321;50.802;4.336;2023-09-19T02:47:14;16.00;99.90
14471;DHT22;7321;50.802;4.336;2023-09-19T02:49:42;16.10;99.90
14471;DHT22;7321;50.802;4.336;2023-09-19T02:52:08;16.10;99.90
14471;DHT22;7321;50.802;4.336;2023-09-19T02:54:34;16.10;99.90
14471;DHT22;7321;50.802;4.336;2023-09-19T02:57:00;16.20;99.90
14471;DHT22;7321;50.802;4.336;2023-09-19T02:59:25;16.30;99.90
14471;DHT22;7321;50.802;4.336;2023-09-19T03:01:51;16.20;99.90
14471;DHT22;7321;50.802;4.336;2023-09-19T03:04:19;16.30;99.90
14471;DHT22;7321;50.802;4.336;2023-09-19T03:06:46;16.20;99.90
14471;DHT22;7321;50.802;4.336;2023-09-19T03:09:14;16.10;99.90
14471;DHT22;7321;50.802;4.336;2023-09-19T03:11:41;16.20;99.90
14471;DHT22;7321;50.802;4.336;2023-09-19T03:14:08;16.30;99.90
14471;DHT22;7321;50.802;4.336;2023-09-19T03:16:35;16.20;99.90
14471;DHT22;7321;50.802;4.336;2023-09-19T03:19:03;16.20;99.90
14471;DHT22;7321;50.802;4.336;2023-09-19T03:21:29;16.10;99.90
14471;DHT22;7321;50.802;4.336;2023-09-19T03:23:55;16.00;99.90
14471;DHT22;7321;50.802;4.336;2023-09-19T03:26:21;16.00;99.90
14471;DHT22;7321;50.802;4.336;2023-09-19T03:28:47;16.00;99.90
14471;DHT22;7321;50.802;4.336;2023-09-19T03:31:13;16.00;99.90
14471;DHT22;7321;50.802;4.336;2023-09-19T03:33:39;16.10;99.90
14471;DHT22;7321;50.802;4.336;2023-09-19T03:36:05;16.10;99.90
14471;DHT22;7321;50.802;4.336;2023-09-19T03:38:31;16.10;99.90
14471;DHT22;7321;50.802;4.336;2023-09-19T03:40:58;16.30;99.90
14471;DHT22;7321;50.802;4.336;2023-09-19T03:43:24;16.30;99.90
14471;DHT22;7321;50.802;4.336;2023-09-19T03:45:50;16.30;99.90
14471;DHT22;7321;50.802;4.336;2023-09-19T03:48:16;16.20;99.90
14471;DHT22;7321;50.802;4.336;2023-09-19T03:50:42;16.10;99.90
14471;DHT22;7321;50.802;4.336;2023-09-19T03:53:09;16.20;99.90
14471;DHT22;7321;50.802;4.336;2023-09-19T03:55:35;16.40;99.90
14471;DHT22;7321;50.802;4.336;2023-09-19T03:58:04;16.40;99.90
14471;DHT22;7321;50.802;4.336;2023-09-19T04:00:30;16.40;99.90
14471;DHT22;7321;50.802;4.336;2023-09-19T04:02:56;16.40;99.90
14471;DHT22;7321;50.802;4.336;2023-09-19T04:05:25;16.20;99.90
14471;DHT22;7321;50.802;4.336;2023-09-19T04:07:51;16.10;99.90
14471;DHT22;7321;50.802;4.336;2023-09-19T04:10:17;16.20;99.90
14471;DHT22;7321;50.802;4.336;2023-09-19T04:12:53;16.10;99.90
14471;DHT22;7321;50.802;4.336;2023-09-19T04:15:19;16.10;99.90
14471;DHT22;7321;50.802;4.336;2023-09-19T04:17:51;16.00;99.90
14471;DHT22;7321;50.802;4.336;2023-09-19T04:20:21;16.00;99.90
14471;DHT22;7321;50.802;4.336;2023-09-19T04:22:49;16.00;99.90
14471;DHT22;7321;50.802;4.336;2023-09-19T04:25:15;16.00;99.90
14471;DHT22;7321;50.802;4.336;2023-09-19T04:27:41;16.00;99.90
14471;DHT22;7321;50.802;4.336;2023-09-19T04:30:07;15.90;99.90
14471;DHT22;7321;50.802;4.336;2023-09-19T04:32:38;15.90;99.90
14471;DHT22;7321;50.802;4.336;2023-09-19T04:35:09;15.90;99.90
14471;DHT22;7321;50.802;4.336;2023-09-19T04:37:39;15.80;99.90
14471;DHT22;7321;50.802;4.336;2023-09-19T04:40:07;16.00;99.90
14471;DHT22;7321;50.802;4.336;2023-09-19T04:42:41;15.90;99.90
14471;DHT22;7321;50.802;4.336;2023-09-19T04:45:11;15.80;99.90
14471;DHT22;7321;50.802;4.336;2023-09-19T04:47:37;15.90;99.90
14471;DHT22;7321;50.802;4.336;2023-09-19T04:50:08;15.90;99.90
14471;DHT22;7321;50.802;4.336;2023-09-19T04:52:41;16.00;99.90
14471;DHT22;7321;50.802;4.336;2023-09-19T04:55:14;15.90;99.90
14471;DHT22;7321;50.802;4.336;2023-09-19T04:57:48;15.90;99.90
14471;DHT22;7321;50.802;4.336;2023-09-19T05:00:18;15.70;99.90
14471;DHT22;7321;50.802;4.336;2023-09-19T05:02:45;15.70;99.90
14471;DHT22;7321;50.802;4.336;2023-09-19T05:05:12;15.70;99.90
14471;DHT22;7321;50.802;4.336;2023-09-19T05:07:41;15.70;99.90
14471;DHT22;7321;50.802;4.336;2023-09-19T05:10:08;15.80;99.90
14471;DHT22;7321;50.802;4.336;2023-09-19T05:12:34;15.80;99.90
14471;DHT22;7321;50.802;4.336;2023-09-19T05:15:05;15.80;99.90
14471;DHT22;7321;50.802;4.336;2023-09-19T05:17:35;15.80;99.90
14471;DHT22;7321;50.802;4.336;2023-09-19T05:20:03;15.70;99.90
14471;DHT22;7321;50.802;4.336;2023-09-19T05:22:43;15.80;99.90
14471;DHT22;7321;50.802;4.336;2023-09-19T05:25:10;15.80;99.90
14471;DHT22;7321;50.802;4.336;2023-09-19T05:27:36;15.80;99.90
14471;DHT22;7321;50.802;4.336;2023-09-19T05:30:03;15.80;99.90
14471;DHT22;7321;50.802;4.336;2023-09-19T05:32:28;15.80;99.90
14471;DHT22;7321;50.802;4.336;2023-09-19T05:34:56;15.80;99.90
14471;DHT22;7321;50.802;4.336;2023-09-19T05:37:22;15.70;99.90
14471;DHT22;7321;50.802;4.336;2023-09-19T05:39:49;15.70;99.90
14471;DHT22;7321;50.802;4.336;2023-09-19T05:42:15;15.90;99.90
14471;DHT22;7321;50.802;4.336;2023-09-19T05:44:41;16.00;99.90
14471;DHT22;7321;50.802;4.336;2023-09-19T05:47:07;15.90;99.90
14471;DHT22;7321;50.802;4.336;2023-09-19T05:49:37;16.00;99.90
14471;DHT22;7321;50.802;4.336;2023-09-19T05:52:06;16.10;99.90
14471;DHT22;7321;50.802;4.336;2023-09-19T05:54:32;16.10;99.90
14471;DHT22;7321;50.802;4.336;2023-09-19T05:57:02;16.00;99.90
14471;DHT22;7321;50.802;4.336;2023-09-19T05:59:28;16.00;99.90
14471;DHT22;7321;50.802;4.336;2023-09-19T06:01:54;16.00;99.90
14471;DHT22;7321;50.802;4.336;2023-09-19T06:04:19;15.90;99.90
14471;DHT22;7321;50.802;4.336;2023-09-19T06:06:46;16.00;99.90
14471;DHT22;7321;50.802;4.336;2023-09-19T06:09:14;15.90;99.90
14471;DHT22;7321;50.802;4.336;2023-09-19T06:11:43;16.00;99.90
14471;DHT22;7321;50.802;4.336;2023-09-19T06:14:09;16.10;99.90
14471;DHT22;7321;50.802;4.336;2023-09-19T06:16:36;16.30;99.90
14471;DHT22;7321;50.802;4.336;2023-09-19T06:19:03;16.20;99.90
14471;DHT22;7321;50.802;4.336;2023-09-19T06:21:32;16.10;99.90
14471;DHT22;7321;50.802;4.336;2023-09-19T06:23:58;16.10;99.90
14471;DHT22;7321;50.802;4.336;2023-09-19T06:26:24;16.00;99.90
14471;DHT22;7321;50.802;4.336;2023-09-19T06:28:52;16.10;99.90
14471;DHT22;7321;50.802;4.336;2023-09-19T06:31:18;16.00;99.90
14471;DHT22;7321;50.802;4.336;2023-09-19T06:33:44;16.00;99.90
14471;DHT22;7321;50.802;4.336;2023-09-19T06:36:10;16.00;99.90
14471;DHT22;7321;50.802;4.336;2023-09-19T06:38:37;16.10;99.90
14471;DHT22;7321;50.802;4.336;2023-09-19T06:41:04;16.20;99.90
14471;DHT22;7321;50.802;4.336;2023-09-19T06:43:34;16.20;99.90
14471;DHT22;7321;50.802;4.336;2023-09-19T06:46:01;16.40;99.90
14471;DHT22;7321;50.802;4.336;2023-09-19T06:48:27;16.30;99.90
14471;DHT22;7321;50.802;4.336;2023-09-19T06:50:57;16.40;99.90
14471;DHT22;7321;50.802;4.336;2023-09-19T06:53:24;16.40;99.90
14471;DHT22;7321;50.802;4.336;2023-09-19T06:55:51;16.40;99.90
14471;DHT22;7321;50.802;4.336;2023-09-19T06:58:17;16.50;99.90
14471;DHT22;7321;50.802;4.336;2023-09-19T07:00:43;16.20;99.90
14471;DHT22;7321;50.802;4.336;2023-09-19T07:03:10;16.30;99.90
14471;DHT22;7321;50.802;4.336;2023-09-19T07:05:40;16.20;99.90
14471;DHT22;7321;50.802;4.336;2023-09-19T07:08:06;16.30;99.90
14471;DHT22;7321;50.802;4.336;2023-09-19T07:10:34;16.50;99.90
14471;DHT22;7321;50.802;4.336;2023-09-19T07:13:03;16.60;99.90
14471;DHT22;7321;50.802;4.336;2023-09-19T07:15:32;16.80;99.90
14471;DHT22;7321;50.802;4.336;2023-09-19T07:18:05;16.80;99.90
14471;DHT22;7321;50.802;4.336;2023-09-19T07:20:32;17.00;99.90
14471;DHT22;7321;50.802;4.336;2023-09-19T07:23:00;17.00;99.90
14471;DHT22;7321;50.802;4.336;2023-09-19T07:25:27;16.90;99.90
14471;DHT22;7321;50.802;4.336;2023-09-19T07:27:55;17.10;99.90
14471;DHT22;7321;50.802;4.336;2023-09-19T07:30:22;16.90;99.90
14471;DHT22;7321;50.802;4.336;2023-09-19T07:32:48;17.00;99.90
14471;DHT22;7321;50.802;4.336;2023-09-19T07:35:14;17.20;99.90
14471;DHT22;7321;50.802;4.336;2023-09-19T07:37:40;17.20;99.90
14471;DHT22;7321;50.802;4.336;2023-09-19T07:40:06;17.30;99.90
14471;DHT22;7321;50.802;4.336;2023-09-19T07:42:36;17.40;99.90
14471;DHT22;7321;50.802;4.336;2023-09-19T07:45:04;17.50;99.90
14471;DHT22;7321;50.802;4.336;2023-09-19T07:47:30;17.50;99.90
14471;DHT22;7321;50.802;4.336;2023-09-19T07:49:58;17.40;99.90
14471;DHT22;7321;50.802;4.336;2023-09-19T07:52:24;17.40;99.90
14471;DHT22;7321;50.802;4.336;2023-09-19T07:54:50;17.60;99.90
14471;DHT22;7321;50.802;4.336;2023-09-19T07:57:16;17.90;99.90
14471;DHT22;7321;50.802;4.336;2023-09-19T07:59:42;17.90;99.90
14471;DHT22;7321;50.802;4.336;2023-09-19T08:02:09;17.90;99.90
14471;DHT22;7321;50.802;4.336;2023-09-19T08:04:42;18.10;99.90
14471;DHT22;7321;50.802;4.336;2023-09-19T08:07:08;18.10;99.90
14471;DHT22;7321;50.802;4.336;2023-09-19T08:09:34;18.00;99.90
14471;DHT22;7321;50.802;4.336;2023-09-19T08:12:00;18.10;99.90
14471;DHT22;7321;50.802;4.336;2023-09-19T08:14:36;18.30;99.90
14471;DHT22;7321;50.802;4.336;2023-09-19T08:17:07;18.40;99.90
14471;DHT22;7321;50.802;4.336;2023-09-19T08:19:34;18.20;99.90
14471;DHT22;7321;50.802;4.336;2023-09-19T08:22:00;18.30;99.90
14471;DHT22;7321;50.802;4.336;2023-09-19T08:24:30;18.30;99.90
14471;DHT22;7321;50.802;4.336;2023-09-19T08:26:57;18.50;99.90
14471;DHT22;7321;50.802;4.336;2023-09-19T08:29:24;18.50;99.90
14471;DHT22;7321;50.802;4.336;2023-09-19T08:31:56;18.40;99.90
14471;DHT22;7321;50.802;4.336;2023-09-19T08:34:26;18.40;99.90
14471;DHT22;7321;50.802;4.336;2023-09-19T08:36:57;18.40;99.90
14471;DHT22;7321;50.802;4.336;2023-09-19T08:39:24;18.40;99.90
14471;DHT22;7321;50.802;4.336;2023-09-19T08:41:56;18.50;99.90
14471;DHT22;7321;50.802;4.336;2023-09-19T08:44:22;18.80;99.90
14471;DHT22;7321;50.802;4.336;2023-09-19T08:46:54;19.00;99.90
14471;DHT22;7321;50.802;4.336;2023-09-19T08:49:52;19.00;99.90
14471;DHT22;7321;50.802;4.336;2023-09-19T08:52:22;19.20;99.90
14471;DHT22;7321;50.802;4.336;2023-09-19T08:54:58;19.10;99.90
14471;DHT22;7321;50.802;4.336;2023-09-19T08:57:33;19.20;99.90
14471;DHT22;7321;50.802;4.336;2023-09-19T09:00:02;19.20;99.90
14471;DHT22;7321;50.802;4.336;2023-09-19T09:02:31;19.40;99.90
14471;DHT22;7321;50.802;4.336;2023-09-19T09:05:00;19.40;99.90
14471;DHT22;7321;50.802;4.336;2023-09-19T09:07:26;19.30;99.90
14471;DHT22;7321;50.802;4.336;2023-09-19T09:09:54;19.30;99.90
14471;DHT22;7321;50.802;4.336;2023-09-19T09:12:20;19.60;99.90
14471;DHT22;7321;50.802;4.336;2023-09-19T09:14:46;19.60;99.90
14471;DHT22;7321;50.802;4.336;2023-09-19T09:17:18;19.70;99.90
14471;DHT22;7321;50.802;4.336;2023-09-19T09:19:46;19.90;99.90
14471;DHT22;7321;50.802;4.336;2023-09-19T09:22:13;19.80;99.90
14471;DHT22;7321;50.802;4.336;2023-09-19T09:24:55;19.80;99.90
14471;DHT22;7321;50.802;4.336;2023-09-19T09:27:24;19.80;99.90
14471;DHT22;7321;50.802;4.336;2023-09-19T09:29:51;19.80;99.90
14471;DHT22;7321;50.802;4.336;2023-09-19T09:32:28;19.60;99.90
14471;DHT22;7321;50.802;4.336;2023-09-19T09:34:59;19.70;99.90
14471;DHT22;7321;50.802;4.336;2023-09-19T09:37:26;19.90;99.90
14471;DHT22;7321;50.802;4.336;2023-09-19T09:39:57;20.10;99.90
14471;DHT22;7321;50.802;4.336;2023-09-19T09:42:31;20.10;99.90
14471;DHT22;7321;50.802;4.336;2023-09-19T09:48:00;20.30;99.90
14471;DHT22;7321;50.802;4.336;2023-09-19T09:50:30;20.10;99.90
14471;DHT22;7321;50.802;4.336;2023-09-19T09:53:29;20.00;99.90
14471;DHT22;7321;50.802;4.336;2023-09-19T09:56:05;20.00;99.90
14471;DHT22;7321;50.802;4.336;2023-09-19T09:58:35;19.70;99.90
14471;DHT22;7321;50.802;4.336;2023-09-19T10:01:02;19.60;99.90
14471;DHT22;7321;50.802;4.336;2023-09-19T10:03:38;19.60;99.90
14471;DHT22;7321;50.802;4.336;2023-09-19T10:06:14;19.60;99.90
14471;DHT22;7321;50.802;4.336;2023-09-19T10:11:47;19.50;99.90
14471;DHT22;7321;50.802;4.336;2023-09-19T10:14:17;19.60;99.90
14471;DHT22;7321;50.802;4.336;2023-09-19T10:16:49;19.70;99.90
14471;DHT22;7321;50.802;4.336;2023-09-19T10:19:27;19.80;99.90
14471;DHT22;7321;50.802;4.336;2023-09-19T10:21:54;19.90;99.90
14471;DHT22;7321;50.802;4.336;2023-09-19T10:24:22;19.80;99.90
14471;DHT22;7321;50.802;4.336;2023-09-19T10:26:50;19.80;99.90
14471;DHT22;7321;50.802;4.336;2023-09-19T10:29:17;20.00;99.90
14471;DHT22;7321;50.802;4.336;2023-09-19T10:31:47;20.10;99.90
14471;DHT22;7321;50.802;4.336;2023-09-19T10:34:17;20.10;99.90
14471;DHT22;7321;50.802;4.336;2023-09-19T10:36:46;20.20;99.90
14471;DHT22;7321;50.802;4.336;2023-09-19T10:39:16;20.20;99.90
14471;DHT22;7321;50.802;4.336;2023-09-19T10:41:51;20.30;99.90
14471;DHT22;7321;50.802;4.336;2023-09-19T10:44:25;20.30;99.90
14471;DHT22;7321;50.802;4.336;2023-09-19T10:46:52;20.30;99.90
14471;DHT22;7321;50.802;4.336;2023-09-19T10:49:20;20.30;99.90
14471;DHT22;7321;50.802;4.336;2023-09-19T10:51:48;20.30;99.90
14471;DHT22;7321;50.802;4.336;2023-09-19T10:54:18;20.40;99.90
14471;DHT22;7321;50.802;4.336;2023-09-19T10:56:49;20.50;99.90
14471;DHT22;7321;50.802;4.336;2023-09-19T10:59:18;20.50;99.90
14471;DHT22;7321;50.802;4.336;2023-09-19T11:01:54;20.60;99.90
14471;DHT22;7321;50.802;4.336;2023-09-19T11:04:38;20.70;99.90
14471;DHT22;7321;50.802;4.336;2023-09-19T11:07:14;20.80;99.90
14471;DHT22;7321;50.802;4.336;2023-09-19T11:15:07;20.90;99.90
14471;DHT22;7321;50.802;4.336;2023-09-19T11:17:43;21.10;99.90
14471;DHT22;7321;50.802;4.336;2023-09-19T11:20:21;21.20;99.90
14471;DHT22;7321;50.802;4.336;2023-09-19T11:30:47;21.60;99.90
14471;DHT22;7321;50.802;4.336;2023-09-19T11:33:26;21.80;99.90
14471;DHT22;7321;50.802;4.336;2023-09-19T11:36:14;21.70;99.90
14471;DHT22;7321;50.802;4.336;2023-09-19T11:43:48;21.20;99.90
14471;DHT22;7321;50.802;4.336;2023-09-19T11:46:19;21.20;99.90
14471;DHT22;7321;50.802;4.336;2023-09-19T11:48:50;21.10;99.90
14471;DHT22;7321;50.802;4.336;2023-09-19T11:51:24;21.20;99.90
14471;DHT22;7321;50.802;4.336;2023-09-19T11:53:55;21.30;99.90
14471;DHT22;7321;50.802;4.336;2023-09-19T11:56:23;21.50;99.90
14471;DHT22;7321;50.802;4.336;2023-09-19T11:58:56;21.40;99.90
14471;DHT22;7321;50.802;4.336;2023-09-19T12:01:30;21.40;99.90
14471;DHT22;7321;50.802;4.336;2023-09-19T12:03:58;21.40;99.90
14471;DHT22;7321;50.802;4.336;2023-09-19T12:06:26;21.30;99.90
14471;DHT22;7321;50.802;4.336;2023-09-19T12:08:53;21.30;99.90
14471;DHT22;7321;50.802;4.336;2023-09-19T12:11:28;21.40;99.90
14471;DHT22;7321;50.802;4.336;2023-09-19T12:13:56;21.40;99.90
14471;DHT22;7321;50.802;4.336;2023-09-19T12:16:26;21.40;99.90
14471;DHT22;7321;50.802;4.336;2023-09-19T12:18:56;21.30;99.90
14471;DHT22;7321;50.802;4.336;2023-09-19T12:21:27;21.30;99.90
14471;DHT22;7321;50.802;4.336;2023-09-19T12:26:38;21.40;99.90
14471;DHT22;7321;50.802;4.336;2023-09-19T12:29:14;21.30;99.90
14471;DHT22;7321;50.802;4.336;2023-09-19T12:31:58;21.30;99.90
14471;DHT22;7321;50.802;4.336;2023-09-19T12:34:30;21.30;99.90
14471;DHT22;7321;50.802;4.336;2023-09-19T12:37:11;21.40;99.90
14471;DHT22;7321;50.802;4.336;2023-09-19T12:39:38;21.30;99.90
14471;DHT22;7321;50.802;4.336;2023-09-19T12:42:10;21.30;99.90
14471;DHT22;7321;50.802;4.336;2023-09-19T12:44:44;21.30;99.90
14471;DHT22;7321;50.802;4.336;2023-09-19T12:47:11;21.10;99.90
14471;DHT22;7321;50.802;4.336;2023-09-19T12:50:13;21.20;99.90
14471;DHT22;7321;50.802;4.336;2023-09-19T12:52:40;21.40;99.90
14471;DHT22;7321;50.802;4.336;2023-09-19T12:55:06;21.50;99.90
14471;DHT22;7321;50.802;4.336;2023-09-19T12:57:34;21.40;99.90
14471;DHT22;7321;50.802;4.336;2023-09-19T13:00:04;21.30;99.90
14471;DHT22;7321;50.802;4.336;2023-09-19T13:02:37;21.10;99.90
14471;DHT22;7321;50.802;4.336;2023-09-19T13:05:03;21.10;99.90
14471;DHT22;7321;50.802;4.336;2023-09-19T13:07:45;21.10;99.90
14471;DHT22;7321;50.802;4.336;2023-09-19T13:10:13;21.20;99.90
14471;DHT22;7321;50.802;4.336;2023-09-19T13:12:42;21.10;99.90
14471;DHT22;7321;50.802;4.336;2023-09-19T13:15:13;21.20;99.90
14471;DHT22;7321;50.802;4.336;2023-09-19T13:17:48;21.20;99.90
14471;DHT22;7321;50.802;4.336;2023-09-19T13:20:27;21.20;99.90
14471;DHT22;7321;50.802;4.336;2023-09-19T13:22:58;21.30;99.90
14471;DHT22;7321;50.802;4.336;2023-09-19T13:25:34;21.50;99.90
14471;DHT22;7321;50.802;4.336;2023-09-19T13:28:01;21.50;99.90
14471;DHT22;7321;50.802;4.336;2023-09-19T13:30:30;21.50;99.90
14471;DHT22;7321;50.802;4.336;2023-09-19T13:33:11;21.60;99.90
14471;DHT22;7321;50.802;4.336;2023-09-19T13:35:38;21.70;99.90
14471;DHT22;7321;50.802;4.336;2023-09-19T13:38:06;21.90;99.90
14471;DHT22;7321;50.802;4.336;2023-09-19T13:40:38;22.00;99.90
14471;DHT22;7321;50.802;4.336;2023-09-19T13:43:07;21.70;99.90
14471;DHT22;7321;50.802;4.336;2023-09-19T13:45:33;21.70;99.90
14471;DHT22;7321;50.802;4.336;2023-09-19T13:47:59;21.80;99.90
14471;DHT22;7321;50.802;4.336;2023-09-19T13:50:25;21.70;99.90
14471;DHT22;7321;50.802;4.336;2023-09-19T13:52:54;22.00;99.90
14471;DHT22;7321;50.802;4.336;2023-09-19T13:55:20;22.10;99.90
14471;DHT22;7321;50.802;4.336;2023-09-19T13:57:47;22.10;99.90
14471;DHT22;7321;50.802;4.336;2023-09-19T14:00:18;21.80;99.90
14471;DHT22;7321;50.802;4.336;2023-09-19T14:02:44;21.70;99.90
14471;DHT22;7321;50.802;4.336;2023-09-19T14:05:15;21.60;99.90
14471;DHT22;7321;50.802;4.336;2023-09-19T14:07:43;21.60;99.90
14471;DHT22;7321;50.802;4.336;2023-09-19T14:10:10;21.50;99.90
14471;DHT22;7321;50.802;4.336;2023-09-19T14:12:37;21.20;99.90
14471;DHT22;7321;50.802;4.336;2023-09-19T14:15:09;21.20;99.90
14471;DHT22;7321;50.802;4.336;2023-09-19T14:17:37;21.30;99.90
14471;DHT22;7321;50.802;4.336;2023-09-19T14:20:03;21.10;99.90
14471;DHT22;7321;50.802;4.336;2023-09-19T14:22:31;21.20;99.90
14471;DHT22;7321;50.802;4.336;2023-09-19T14:24:57;21.40;99.90
14471;DHT22;7321;50.802;4.336;2023-09-19T14:27:25;21.50;99.90
14471;DHT22;7321;50.802;4.336;2023-09-19T14:29:51;21.60;99.90
14471;DHT22;7321;50.802;4.336;2023-09-19T14:32:17;21.60;99.90
14471;DHT22;7321;50.802;4.336;2023-09-19T14:34:43;21.60;99.90
14471;DHT22;7321;50.802;4.336;2023-09-19T14:37:10;21.40;99.90
14471;DHT22;7321;50.802;4.336;2023-09-19T14:39:37;21.40;99.90
14471;DHT22;7321;50.802;4.336;2023-09-19T14:42:05;21.50;99.90
14471;DHT22;7321;50.802;4.336;2023-09-19T14:44:31;21.50;99.90
14471;DHT22;7321;50.802;4.336;2023-09-19T14:46:57;21.70;99.90
14471;DHT22;7321;50.802;4.336;2023-09-19T14:49:23;21.60;99.90
14471;DHT22;7321;50.802;4.336;2023-09-19T14:51:49;21.70;99.90
14471;DHT22;7321;50.802;4.336;2023-09-19T14:54:15;21.60;99.90
14471;DHT22;7321;50.802;4.336;2023-09-19T14:56:53;21.60;99.90
14471;DHT22;7321;50.802;4.336;2023-09-19T14:59:37;21.70;99.90
14471;DHT22;7321;50.802;4.336;2023-09-19T15:02:04;21.70;99.90
14471;DHT22;7321;50.802;4.336;2023-09-19T15:04:30;21.60;99.90
14471;DHT22;7321;50.802;4.336;2023-09-19T15:06:56;21.70;99.90
14471;DHT22;7321;50.802;4.336;2023-09-19T15:09:23;21.60;99.90
14471;DHT22;7321;50.802;4.336;2023-09-19T15:11:53;21.30;99.90
14471;DHT22;7321;50.802;4.336;2023-09-19T15:14:19;21.20;99.90
14471;DHT22;7321;50.802;4.336;2023-09-19T15:16:45;21.00;99.90
14471;DHT22;7321;50.802;4.336;2023-09-19T15:19:14;20.90;99.90
14471;DHT22;7321;50.802;4.336;2023-09-19T15:21:43;20.80;99.90
14471;DHT22;7321;50.802;4.336;2023-09-19T15:24:09;20.80;99.90
14471;DHT22;7321;50.802;4.336;2023-09-19T15:26:36;20.80;99.90
14471;DHT22;7321;50.802;4.336;2023-09-19T15:29:09;20.90;99.90
14471;DHT22;7321;50.802;4.336;2023-09-19T15:31:35;20.90;99.90
14471;DHT22;7321;50.802;4.336;2023-09-19T15:34:04;20.90;99.90
14471;DHT22;7321;50.802;4.336;2023-09-19T15:36:33;20.80;99.90
14471;DHT22;7321;50.802;4.336;2023-09-19T15:39:08;20.80;99.90
14471;DHT22;7321;50.802;4.336;2023-09-19T15:41:39;20.50;99.90
14471;DHT22;7321;50.802;4.336;2023-09-19T15:44:12;20.50;99.90
14471;DHT22;7321;50.802;4.336;2023-09-19T15:46:38;20.80;99.90
14471;DHT22;7321;50.802;4.336;2023-09-19T15:49:07;20.90;99.90
14471;DHT22;7321;50.802;4.336;2023-09-19T15:51:36;20.90;99.90
14471;DHT22;7321;50.802;4.336;2023-09-19T15:54:11;20.70;99.90
14471;DHT22;7321;50.802;4.336;2023-09-19T15:56:40;20.70;99.90
14471;DHT22;7321;50.802;4.336;2023-09-19T15:59:07;20.70;99.90
14471;DHT22;7321;50.802;4.336;2023-09-19T16:01:33;20.60;99.90
14471;DHT22;7321;50.802;4.336;2023-09-19T16:03:58;20.60;99.90
14471;DHT22;7321;50.802;4.336;2023-09-19T16:06:28;20.70;99.90
14471;DHT22;7321;50.802;4.336;2023-09-19T16:08:56;20.80;99.90
14471;DHT22;7321;50.802;4.336;2023-09-19T16:11:24;20.90;99.90
14471;DHT22;7321;50.802;4.336;2023-09-19T16:13:51;20.80;99.90
14471;DHT22;7321;50.802;4.336;2023-09-19T16:16:19;20.70;99.90
14471;DHT22;7321;50.802;4.336;2023-09-19T16:18:56;20.80;99.90
14471;DHT22;7321;50.802;4.336;2023-09-19T16:21:24;20.90;99.90
14471;DHT22;7321;50.802;4.336;2023-09-19T16:23:52;20.70;99.90
14471;DHT22;7321;50.802;4.336;2023-09-19T16:26:20;20.50;99.90
14471;DHT22;7321;50.802;4.336;2023-09-19T16:28:47;20.40;99.90
14471;DHT22;7321;50.802;4.336;2023-09-19T16:31:15;20.30;99.90
14471;DHT22;7321;50.802;4.336;2023-09-19T16:33:44;20.30;99.90
14471;DHT22;7321;50.802;4.336;2023-09-19T16:36:12;20.20;99.90